sensor_id;sensor_type;location;lat;lon;timestamp;pressure;altitude;pressure_sealevel;temperature;humidity
16331;BME280;8275;48.206;16.340;2023-05-10T00:00:46;99091.84;;;17.53;35.06
16331;BME280;8275;48.206;16.340;2023-05-10T00:03:14;99086.56;;;17.52;35.15
16331;BME280;8275;48.206;16.340;2023-05-10T00:05:44;99084.09;;;17.50;35.30
16331;BME280;8275;48.206;16.340;2023-05-10T00:08:13;99078.03;;;17.48;35.21
16331;BME280;8275;48.206;16.340;2023-05-10T00:10:41;99077.53;;;17.46;35.40
16331;BME280;8275;48.206;16.340;2023-05-10T00:13:09;99075.88;;;17.45;35.37
16331;BME280;8275;48.206;16.340;2023-05-10T00:15:38;99076.19;;;17.44;35.38
16331;BME280;8275;48.206;16.340;2023-05-10T00:18:06;99077.63;;;17.41;35.36
16331;BME280;8275;48.206;16.340;2023-05-10T00:20:34;99068.81;;;17.39;35.52
16331;BME280;8275;48.206;16.340;2023-05-10T00:23:04;99073.31;;;17.35;35.77
16331;BME280;8275;48.206;16.340;2023-05-10T00:25:33;99070.31;;;17.32;35.81
16331;BME280;8275;48.206;16.340;2023-05-10T00:28:01;99059.88;;;17.29;35.80
16331;BME280;8275;48.206;16.340;2023-05-10T00:30:29;99057.19;;;17.24;36.03
16331;BME280;8275;48.206;16.340;2023-05-10T00:32:58;99057.78;;;17.21;36.19
16331;BME280;8275;48.206;16.340;2023-05-10T00:35:26;99054.84;;;17.17;36.38
16331;BME280;8275;48.206;16.340;2023-05-10T00:37:55;99052.97;;;17.13;36.51
16331;BME280;8275;48.206;16.340;2023-05-10T00:40:25;99038.06;;;17.09;36.47
16331;BME280;8275;48.206;16.340;2023-05-10T00:42:53;99037.88;;;17.05;36.33
16331;BME280;8275;48.206;16.340;2023-05-10T00:45:22;99037.66;;;17.02;36.71
16331;BME280;8275;48.206;16.340;2023-05-10T00:47:51;99034.69;;;16.98;36.67
16331;BME280;8275;48.206;16.340;2023-05-10T00:50:22;99028.13;;;16.94;36.74
16331;BME280;8275;48.206;16.340;2023-05-10T00:52:51;99023.19;;;16.91;36.95
16331;BME280;8275;48.206;16.340;2023-05-10T00:55:20;99037.63;;;16.88;37.19
16331;BME280;8275;48.206;16.340;2023-05-10T00:57:50;99029.13;;;16.84;37.21
16331;BME280;8275;48.206;16.340;2023-05-10T01:00:18;99030.53;;;16.82;37.26
16331;BME280;8275;48.206;16.340;2023-05-10T01:02:47;99019.25;;;16.78;37.25
16331;BME280;8275;48.206;16.340;2023-05-10T01:05:16;99021.81;;;16.75;37.38
16331;BME280;8275;48.206;16.340;2023-05-10T01:07:45;99018.53;;;16.73;37.39
16331;BME280;8275;48.206;16.340;2023-05-10T01:10:14;99008.38;;;16.68;37.58
16331;BME280;8275;48.206;16.340;2023-05-10T01:12:45;99015.31;;;16.66;37.71
16331;BME280;8275;48.206;16.340;2023-05-10T01:15:18;99012.31;;;16.62;37.87
16331;BME280;8275;48.206;16.340;2023-05-10T01:17:48;99011.00;;;16.60;37.88
16331;BME280;8275;48.206;16.340;2023-05-10T01:20:17;99004.13;;;16.57;37.91
16331;BME280;8275;48.206;16.340;2023-05-10T01:23:16;98996.19;;;16.51;38.22
16331;BME280;8275;48.206;16.340;2023-05-10T01:26:17;98997.91;;;16.47;38.17
16331;BME280;8275;48.206;16.340;2023-05-10T01:32:26;99000.53;;;16.38;38.40
16331;BME280;8275;48.206;16.340;2023-05-10T01:35:02;98997.25;;;16.36;38.30
16331;BME280;8275;48.206;16.340;2023-05-10T01:37:42;98994.25;;;16.33;38.55
16331;BME280;8275;48.206;16.340;2023-05-10T01:40:19;99000.09;;;16.31;38.59
16331;BME280;8275;48.206;16.340;2023-05-10T01:42:54;99003.16;;;16.30;38.48
16331;BME280;8275;48.206;16.340;2023-05-10T01:45:31;98993.81;;;16.26;38.51
16331;BME280;8275;48.206;16.340;2023-05-10T01:48:10;98998.81;;;16.24;38.60
16331;BME280;8275;48.206;16.340;2023-05-10T01:50:43;98988.38;;;16.21;38.82
16331;BME280;8275;48.206;16.340;2023-05-10T01:53:13;98995.31;;;16.18;38.90
16331;BME280;8275;48.206;16.340;2023-05-10T01:55:48;98987.63;;;16.15;38.89
16331;BME280;8275;48.206;16.340;2023-05-10T01:58:21;98992.13;;;16.11;39.04
16331;BME280;8275;48.206;16.340;2023-05-10T02:00:51;98983.59;;;16.07;38.87
16331;BME280;8275;48.206;16.340;2023-05-10T02:03:24;98985.00;;;16.05;39.17
16331;BME280;8275;48.206;16.340;2023-05-10T02:05:55;98991.66;;;16.04;39.39
16331;BME280;8275;48.206;16.340;2023-05-10T02:08:24;98983.97;;;16.01;39.20
16331;BME280;8275;48.206;16.340;2023-05-10T02:10:56;98988.16;;;15.98;39.39
16331;BME280;8275;48.206;16.340;2023-05-10T02:13:26;98986.78;;;15.96;39.25
16331;BME280;8275;48.206;16.340;2023-05-10T02:15:57;98992.63;;;15.94;39.41
16331;BME280;8275;48.206;16.340;2023-05-10T02:18:27;98987.69;;;15.91;39.72
16331;BME280;8275;48.206;16.340;2023-05-10T02:20:58;98981.94;;;15.88;39.64
16331;BME280;8275;48.206;16.340;2023-05-10T02:23:28;98983.88;;;15.87;39.84
16331;BME280;8275;48.206;16.340;2023-05-10T02:25:58;98981.44;;;15.86;39.72
16331;BME280;8275;48.206;16.340;2023-05-10T02:28:28;98988.88;;;15.85;39.85
16331;BME280;8275;48.206;16.340;2023-05-10T02:30:57;98973.72;;;15.83;39.87
16331;BME280;8275;48.206;16.340;2023-05-10T02:33:29;98993.38;;;15.81;39.96
16331;BME280;8275;48.206;16.340;2023-05-10T02:35:59;98986.19;;;15.80;40.01
16331;BME280;8275;48.206;16.340;2023-05-10T02:38:30;98987.59;;;15.78;40.08
16331;BME280;8275;48.206;16.340;2023-05-10T02:41:02;98982.66;;;15.75;39.94
16331;BME280;8275;48.206;16.340;2023-05-10T02:43:33;98984.63;;;15.74;40.21
16331;BME280;8275;48.206;16.340;2023-05-10T02:46:03;98986.03;;;15.72;40.13
16331;BME280;8275;48.206;16.340;2023-05-10T02:48:33;98982.75;;;15.70;40.63
16331;BME280;8275;48.206;16.340;2023-05-10T02:51:06;98979.47;;;15.68;40.49
16331;BME280;8275;48.206;16.340;2023-05-10T02:53:40;98985.59;;;15.65;40.48
16331;BME280;8275;48.206;16.340;2023-05-10T02:56:13;98981.16;;;15.64;40.84
16331;BME280;8275;48.206;16.340;2023-05-10T02:58:44;98982.56;;;15.61;40.68
16331;BME280;8275;48.206;16.340;2023-05-10T03:01:13;98988.09;;;15.61;40.83
16331;BME280;8275;48.206;16.340;2023-05-10T03:03:42;98977.66;;;15.58;40.95
16331;BME280;8275;48.206;16.340;2023-05-10T03:06:11;98987.34;;;15.56;40.93
16331;BME280;8275;48.206;16.340;2023-05-10T03:08:39;98990.69;;;15.53;41.18
16331;BME280;8275;48.206;16.340;2023-05-10T03:11:25;98992.41;;;15.49;41.15
16331;BME280;8275;48.206;16.340;2023-05-10T03:14:08;98994.94;;;15.45;41.07
16331;BME280;8275;48.206;16.340;2023-05-10T03:16:45;98991.91;;;15.41;41.13
16331;BME280;8275;48.206;16.340;2023-05-10T03:19:26;98989.72;;;15.38;41.10
16331;BME280;8275;48.206;16.340;2023-05-10T03:21:59;98990.03;;;15.37;41.24
16331;BME280;8275;48.206;16.340;2023-05-10T03:24:28;99004.16;;;15.35;41.19
16331;BME280;8275;48.206;16.340;2023-05-10T03:26:59;99003.88;;;15.32;41.25
16331;BME280;8275;48.206;16.340;2023-05-10T03:29:30;98999.50;;;15.31;41.24
16331;BME280;8275;48.206;16.340;2023-05-10T03:31:59;99001.72;;;15.29;41.32
16331;BME280;8275;48.206;16.340;2023-05-10T03:34:30;98996.50;;;15.27;41.51
16331;BME280;8275;48.206;16.340;2023-05-10T03:36:59;99010.28;;;15.27;41.54
16331;BME280;8275;48.206;16.340;2023-05-10T03:39:27;99001.19;;;15.27;41.54
16331;BME280;8275;48.206;16.340;2023-05-10T03:41:56;99004.78;;;15.27;41.63
16331;BME280;8275;48.206;16.340;2023-05-10T03:44:24;99002.00;;;15.27;41.66
16331;BME280;8275;48.206;16.340;2023-05-10T03:46:53;99007.22;;;15.29;41.68
16331;BME280;8275;48.206;16.340;2023-05-10T03:49:22;99007.22;;;15.29;41.69
16331;BME280;8275;48.206;16.340;2023-05-10T03:51:52;99010.53;;;15.31;41.72
16331;BME280;8275;48.206;16.340;2023-05-10T03:54:20;99005.56;;;15.33;41.75
16331;BME280;8275;48.206;16.340;2023-05-10T03:56:48;99008.00;;;15.34;41.64
16331;BME280;8275;48.206;16.340;2023-05-10T03:59:17;99008.84;;;15.35;41.73
16331;BME280;8275;48.206;16.340;2023-05-10T04:01:45;99011.00;;;15.38;41.74
16331;BME280;8275;48.206;16.340;2023-05-10T04:04:14;99011.81;;;15.38;41.83
16331;BME280;8275;48.206;16.340;2023-05-10T04:06:42;99006.81;;;15.40;41.71
16331;BME280;8275;48.206;16.340;2023-05-10T04:09:12;99013.69;;;15.43;41.77
16331;BME280;8275;48.206;16.340;2023-05-10T04:11:40;99015.91;;;15.46;41.97
16331;BME280;8275;48.206;16.340;2023-05-10T04:14:09;99014.50;;;15.49;41.90
16331;BME280;8275;48.206;16.340;2023-05-10T04:16:37;99017.78;;;15.51;41.92
16331;BME280;8275;48.206;16.340;2023-05-10T04:19:05;99015.25;;;15.54;41.88
16331;BME280;8275;48.206;16.340;2023-05-10T04:21:34;99019.34;;;15.57;41.81
16331;BME280;8275;48.206;16.340;2023-05-10T04:24:03;99027.06;;;15.60;42.06
16331;BME280;8275;48.206;16.340;2023-05-10T04:26:33;99024.53;;;15.63;42.09
16331;BME280;8275;48.206;16.340;2023-05-10T04:29:01;99030.28;;;15.67;41.85
16331;BME280;8275;48.206;16.340;2023-05-10T04:31:30;99018.66;;;15.70;41.99
16331;BME280;8275;48.206;16.340;2023-05-10T04:33:58;99024.09;;;15.75;42.09
16331;BME280;8275;48.206;16.340;2023-05-10T04:36:27;99030.69;;;15.79;41.90
16331;BME280;8275;48.206;16.340;2023-05-10T04:38:55;99033.91;;;15.86;41.73
16331;BME280;8275;48.206;16.340;2023-05-10T04:41:24;99031.63;;;15.93;41.82
16331;BME280;8275;48.206;16.340;2023-05-10T04:43:54;99034.00;;;15.99;41.65
16331;BME280;8275;48.206;16.340;2023-05-10T04:46:22;99022.59;;;16.06;41.67
16331;BME280;8275;48.206;16.340;2023-05-10T04:48:51;99034.91;;;16.13;41.66
16331;BME280;8275;48.206;16.340;2023-05-10T04:51:19;99025.63;;;16.23;41.62
16331;BME280;8275;48.206;16.340;2023-05-10T04:53:49;99028.31;;;16.47;41.48
16331;BME280;8275;48.206;16.340;2023-05-10T04:56:32;99026.38;;;16.66;41.34
16331;BME280;8275;48.206;16.340;2023-05-10T04:59:02;99016.00;;;16.90;41.21
16331;BME280;8275;48.206;16.340;2023-05-10T05:01:30;99022.41;;;17.18;40.92
16331;BME280;8275;48.206;16.340;2023-05-10T05:03:59;99021.63;;;17.44;40.67
16331;BME280;8275;48.206;16.340;2023-05-10T05:06:27;99021.16;;;17.70;40.23
16331;BME280;8275;48.206;16.340;2023-05-10T05:08:56;99016.69;;;17.96;40.02
16331;BME280;8275;48.206;16.340;2023-05-10T05:11:24;99016.47;;;18.06;39.91
16331;BME280;8275;48.206;16.340;2023-05-10T05:13:53;99022.03;;;18.06;39.69
16331;BME280;8275;48.206;16.340;2023-05-10T05:16:23;99027.06;;;18.04;39.64
16331;BME280;8275;48.206;16.340;2023-05-10T05:18:51;99014.31;;;18.03;39.50
16331;BME280;8275;48.206;16.340;2023-05-10T05:21:20;99016.78;;;18.04;39.51
16331;BME280;8275;48.206;16.340;2023-05-10T05:23:49;99024.47;;;18.07;39.52
16331;BME280;8275;48.206;16.340;2023-05-10T05:26:17;99014.72;;;18.10;39.32
16331;BME280;8275;48.206;16.340;2023-05-10T05:28:46;99019.66;;;18.13;39.33
16331;BME280;8275;48.206;16.340;2023-05-10T05:31:15;99015.44;;;18.15;39.19
16331;BME280;8275;48.206;16.340;2023-05-10T05:33:46;99015.00;;;18.22;38.98
16331;BME280;8275;48.206;16.340;2023-05-10T05:36:14;99009.84;;;18.29;39.00
16331;BME280;8275;48.206;16.340;2023-05-10T05:38:43;99008.78;;;18.39;38.78
16331;BME280;8275;48.206;16.340;2023-05-10T05:41:11;99010.22;;;18.50;38.70
16331;BME280;8275;48.206;16.340;2023-05-10T05:43:39;99009.16;;;18.59;38.51
16331;BME280;8275;48.206;16.340;2023-05-10T05:46:08;99016.09;;;18.70;38.52
16331;BME280;8275;48.206;16.340;2023-05-10T05:48:36;99010.28;;;18.80;38.42
16331;BME280;8275;48.206;16.340;2023-05-10T05:51:06;99010.50;;;18.92;38.36
16331;BME280;8275;48.206;16.340;2023-05-10T05:53:35;99010.44;;;19.06;38.09
16331;BME280;8275;48.206;16.340;2023-05-10T05:56:04;99022.59;;;19.19;37.89
16331;BME280;8275;48.206;16.340;2023-05-10T05:58:32;99016.13;;;19.32;37.84
16331;BME280;8275;48.206;16.340;2023-05-10T06:01:01;99018.81;;;19.45;37.58
16331;BME280;8275;48.206;16.340;2023-05-10T06:03:29;99017.09;;;19.58;37.46
16331;BME280;8275;48.206;16.340;2023-05-10T06:05:58;99019.41;;;19.73;37.30
16331;BME280;8275;48.206;16.340;2023-05-10T06:08:27;99024.88;;;19.87;37.15
16331;BME280;8275;48.206;16.340;2023-05-10T06:10:56;99031.78;;;19.98;37.04
16331;BME280;8275;48.206;16.340;2023-05-10T06:13:24;99025.59;;;20.09;36.80
16331;BME280;8275;48.206;16.340;2023-05-10T06:15:56;99025.47;;;20.23;36.81
16331;BME280;8275;48.206;16.340;2023-05-10T06:18:24;99022.88;;;20.35;36.23
16331;BME280;8275;48.206;16.340;2023-05-10T06:20:53;99028.91;;;20.46;36.30
16331;BME280;8275;48.206;16.340;2023-05-10T06:23:21;99016.31;;;20.57;35.84
16331;BME280;8275;48.206;16.340;2023-05-10T06:25:51;99021.56;;;20.67;35.59
16331;BME280;8275;48.206;16.340;2023-05-10T06:28:20;99022.03;;;20.77;35.84
16331;BME280;8275;48.206;16.340;2023-05-10T06:30:48;99026.09;;;20.88;35.55
16331;BME280;8275;48.206;16.340;2023-05-10T06:33:17;99021.84;;;20.99;35.45
16331;BME280;8275;48.206;16.340;2023-05-10T06:35:45;99035.94;;;21.12;35.00
16331;BME280;8275;48.206;16.340;2023-05-10T06:38:14;99030.16;;;21.25;35.23
16331;BME280;8275;48.206;16.340;2023-05-10T06:40:42;99025.53;;;21.38;34.90
16331;BME280;8275;48.206;16.340;2023-05-10T06:43:12;99023.34;;;21.52;34.44
16331;BME280;8275;48.206;16.340;2023-05-10T06:45:40;99022.50;;;21.60;34.48
16331;BME280;8275;48.206;16.340;2023-05-10T06:48:09;99028.53;;;21.71;34.44
16331;BME280;8275;48.206;16.340;2023-05-10T06:50:37;99025.34;;;21.81;34.30
16331;BME280;8275;48.206;16.340;2023-05-10T06:53:06;99025.84;;;21.91;34.05
16331;BME280;8275;48.206;16.340;2023-05-10T06:55:34;99022.78;;;22.05;33.56
16331;BME280;8275;48.206;16.340;2023-05-10T06:58:03;99014.84;;;22.15;33.32
16331;BME280;8275;48.206;16.340;2023-05-10T07:00:33;99016.88;;;22.27;33.23
16331;BME280;8275;48.206;16.340;2023-05-10T07:03:01;99026.66;;;22.42;33.09
16331;BME280;8275;48.206;16.340;2023-05-10T07:05:30;99022.75;;;22.55;32.41
16331;BME280;8275;48.206;16.340;2023-05-10T07:07:59;99013.19;;;22.64;32.10
16331;BME280;8275;48.206;16.340;2023-05-10T07:10:28;99022.50;;;22.68;31.80
16331;BME280;8275;48.206;16.340;2023-05-10T07:12:56;99022.31;;;22.73;32.20
16331;BME280;8275;48.206;16.340;2023-05-10T07:15:25;99020.91;;;22.79;31.77
16331;BME280;8275;48.206;16.340;2023-05-10T07:17:55;99014.91;;;22.89;31.57
16331;BME280;8275;48.206;16.340;2023-05-10T07:20:24;99007.63;;;22.97;31.30
16331;BME280;8275;48.206;16.340;2023-05-10T07:22:52;99013.94;;;23.06;31.36
16331;BME280;8275;48.206;16.340;2023-05-10T07:25:21;99008.59;;;23.13;31.29
16331;BME280;8275;48.206;16.340;2023-05-10T07:27:49;99004.56;;;23.23;31.17
16331;BME280;8275;48.206;16.340;2023-05-10T07:30:18;98994.31;;;23.27;31.00
16331;BME280;8275;48.206;16.340;2023-05-10T07:32:46;99004.44;;;23.31;31.16
16331;BME280;8275;48.206;16.340;2023-05-10T07:35:17;99002.75;;;23.39;31.05
16331;BME280;8275;48.206;16.340;2023-05-10T07:37:45;99010.56;;;23.45;30.87
16331;BME280;8275;48.206;16.340;2023-05-10T07:40:13;99002.44;;;23.52;31.04
16331;BME280;8275;48.206;16.340;2023-05-10T07:42:42;99008.47;;;23.54;30.92
16331;BME280;8275;48.206;16.340;2023-05-10T07:45:11;99002.66;;;23.59;30.47
16331;BME280;8275;48.206;16.340;2023-05-10T07:47:39;99000.34;;;23.61;30.50
16331;BME280;8275;48.206;16.340;2023-05-10T07:50:08;99007.22;;;23.64;30.40
16331;BME280;8275;48.206;16.340;2023-05-10T07:52:38;99013.50;;;23.61;30.54
16331;BME280;8275;48.206;16.340;2023-05-10T07:55:08;98999.88;;;23.59;30.61
16331;BME280;8275;48.206;16.340;2023-05-10T07:57:37;99013.59;;;23.64;30.42
16331;BME280;8275;48.206;16.340;2023-05-10T08:00:07;99020.97;;;23.69;30.60
16331;BME280;8275;48.206;16.340;2023-05-10T08:02:36;99022.00;;;23.77;30.29
16331;BME280;8275;48.206;16.340;2023-05-10T08:05:06;99020.13;;;23.81;30.40
16331;BME280;8275;48.206;16.340;2023-05-10T08:07:35;99013.84;;;23.84;30.33
16331;BME280;8275;48.206;16.340;2023-05-10T08:10:07;99022.72;;;23.86;30.14
16331;BME280;8275;48.206;16.340;2023-05-10T08:12:36;99024.44;;;23.90;30.31
16331;BME280;8275;48.206;16.340;2023-05-10T08:15:06;99017.00;;;23.94;30.19
16331;BME280;8275;48.206;16.340;2023-05-10T08:17:34;99024.00;;;24.00;30.19
16331;BME280;8275;48.206;16.340;2023-05-10T08:20:04;99011.09;;;24.08;30.29
16331;BME280;8275;48.206;16.340;2023-05-10T08:22:34;99012.34;;;24.22;30.11
16331;BME280;8275;48.206;16.340;2023-05-10T08:25:05;99018.97;;;24.42;29.50
16331;BME280;8275;48.206;16.340;2023-05-10T08:27:34;99013.28;;;24.66;29.57
16331;BME280;8275;48.206;16.340;2023-05-10T08:30:03;99010.09;;;24.80;29.52
16331;BME280;8275;48.206;16.340;2023-05-10T08:32:32;99005.97;;;24.89;29.56
16331;BME280;8275;48.206;16.340;2023-05-10T08:35:02;99006.19;;;24.96;29.42
16331;BME280;8275;48.206;16.340;2023-05-10T08:37:30;99006.00;;;25.05;29.31
16331;BME280;8275;48.206;16.340;2023-05-10T08:40:00;99025.31;;;25.06;29.10
16331;BME280;8275;48.206;16.340;2023-05-10T08:42:31;99003.59;;;25.03;28.93
16331;BME280;8275;48.206;16.340;2023-05-10T08:45:01;99011.53;;;25.01;28.85
16331;BME280;8275;48.206;16.340;2023-05-10T08:47:31;99001.16;;;25.02;28.70
16331;BME280;8275;48.206;16.340;2023-05-10T08:50:00;99000.78;;;25.03;28.68
16331;BME280;8275;48.206;16.340;2023-05-10T08:52:30;99008.53;;;24.94;28.85
16331;BME280;8275;48.206;16.340;2023-05-10T08:55:01;99009.50;;;24.86;29.04
16331;BME280;8275;48.206;16.340;2023-05-10T08:57:31;99004.69;;;24.87;28.66
16331;BME280;8275;48.206;16.340;2023-05-10T09:00:01;99007.72;;;24.94;28.99
16331;BME280;8275;48.206;16.340;2023-05-10T09:02:30;99011.38;;;25.10;28.92
16331;BME280;8275;48.206;16.340;2023-05-10T09:04:59;99011.50;;;25.29;28.74
16331;BME280;8275;48.206;16.340;2023-05-10T09:07:28;99010.72;;;25.44;28.65
16331;BME280;8275;48.206;16.340;2023-05-10T09:09:57;99017.53;;;25.59;28.44
16331;BME280;8275;48.206;16.340;2023-05-10T09:12:26;99013.09;;;25.73;28.36
16331;BME280;8275;48.206;16.340;2023-05-10T09:14:59;99011.38;;;25.85;28.04
16331;BME280;8275;48.206;16.340;2023-05-10T09:17:28;99003.22;;;25.95;27.98
16331;BME280;8275;48.206;16.340;2023-05-10T09:19:58;98992.59;;;26.04;28.07
16331;BME280;8275;48.206;16.340;2023-05-10T09:22:27;98996.97;;;26.17;27.63
16331;BME280;8275;48.206;16.340;2023-05-10T09:25:07;99003.19;;;26.26;27.79
16331;BME280;8275;48.206;16.340;2023-05-10T09:27:36;99001.28;;;26.30;27.73
16331;BME280;8275;48.206;16.340;2023-05-10T09:30:09;99012.13;;;26.32;27.12
16331;BME280;8275;48.206;16.340;2023-05-10T09:32:39;99005.34;;;26.33;26.91
16331;BME280;8275;48.206;16.340;2023-05-10T09:35:09;99008.16;;;26.33;26.83
16331;BME280;8275;48.206;16.340;2023-05-10T09:37:40;98997.63;;;26.30;26.75
16331;BME280;8275;48.206;16.340;2023-05-10T09:40:13;99004.00;;;26.27;26.38
16331;BME280;8275;48.206;16.340;2023-05-10T09:42:51;98987.00;;;26.20;26.23
16331;BME280;8275;48.206;16.340;2023-05-10T09:45:23;99008.53;;;26.16;26.11
16331;BME280;8275;48.206;16.340;2023-05-10T09:47:52;98993.63;;;26.12;26.56
16331;BME280;8275;48.206;16.340;2023-05-10T09:50:21;98982.81;;;26.14;26.35
16331;BME280;8275;48.206;16.340;2023-05-10T09:52:51;98982.09;;;26.17;26.42
16331;BME280;8275;48.206;16.340;2023-05-10T09:55:21;98992.63;;;26.20;26.23
16331;BME280;8275;48.206;16.340;2023-05-10T09:57:59;98993.78;;;26.19;26.24
16331;BME280;8275;48.206;16.340;2023-05-10T10:00:35;98990.16;;;26.18;26.45
16331;BME280;8275;48.206;16.340;2023-05-10T10:03:04;98993.63;;;26.12;26.46
16331;BME280;8275;48.206;16.340;2023-05-10T10:05:35;98992.97;;;26.03;26.28
16331;BME280;8275;48.206;16.340;2023-05-10T10:08:04;98993.53;;;25.93;26.40
16331;BME280;8275;48.206;16.340;2023-05-10T10:10:34;98993.19;;;25.78;26.15
16331;BME280;8275;48.206;16.340;2023-05-10T10:13:02;98995.28;;;25.66;26.30
16331;BME280;8275;48.206;16.340;2023-05-10T10:15:34;98993.44;;;25.58;26.26
16331;BME280;8275;48.206;16.340;2023-05-10T10:18:03;98982.59;;;25.56;26.42
16331;BME280;8275;48.206;16.340;2023-05-10T10:20:33;98998.59;;;25.56;26.48
16331;BME280;8275;48.206;16.340;2023-05-10T10:23:02;98984.59;;;25.56;26.61
16331;BME280;8275;48.206;16.340;2023-05-10T10:25:31;98992.03;;;25.48;26.62
16331;BME280;8275;48.206;16.340;2023-05-10T10:28:16;98991.25;;;25.36;26.35
16331;BME280;8275;48.206;16.340;2023-05-10T10:30:51;98996.66;;;25.29;26.61
16331;BME280;8275;48.206;16.340;2023-05-10T10:33:44;98996.84;;;25.20;26.51
16331;BME280;8275;48.206;16.340;2023-05-10T10:36:17;98986.00;;;25.19;26.38
16331;BME280;8275;48.206;16.340;2023-05-10T10:39:00;98986.59;;;25.12;26.66
16331;BME280;8275;48.206;16.340;2023-05-10T10:41:33;98983.63;;;25.21;26.33
16331;BME280;8275;48.206;16.340;2023-05-10T10:44:24;98978.50;;;25.38;26.66
16331;BME280;8275;48.206;16.340;2023-05-10T10:47:03;98983.69;;;25.67;26.73
16331;BME280;8275;48.206;16.340;2023-05-10T10:49:43;98977.22;;;25.98;26.15
16331;BME280;8275;48.206;16.340;2023-05-10T10:52:24;98977.47;;;26.24;26.29
16331;BME280;8275;48.206;16.340;2023-05-10T10:55:01;98962.91;;;26.57;26.15
16331;BME280;8275;48.206;16.340;2023-05-10T10:57:32;98958.44;;;26.91;25.64
16331;BME280;8275;48.206;16.340;2023-05-10T11:00:27;98960.75;;;27.27;25.63
16331;BME280;8275;48.206;16.340;2023-05-10T11:02:59;98964.06;;;27.78;25.39
16331;BME280;8275;48.206;16.340;2023-05-10T11:05:41;98964.66;;;28.13;24.58
16331;BME280;8275;48.206;16.340;2023-05-10T11:08:16;98974.69;;;28.40;24.41
16331;BME280;8275;48.206;16.340;2023-05-10T11:11:02;98968.66;;;28.68;23.84
16331;BME280;8275;48.206;16.340;2023-05-10T11:13:33;98957.66;;;28.93;23.54
16331;BME280;8275;48.206;16.340;2023-05-10T11:16:17;98948.56;;;29.06;23.54
16331;BME280;8275;48.206;16.340;2023-05-10T11:18:58;98947.66;;;29.36;23.17
16331;BME280;8275;48.206;16.340;2023-05-10T11:21:29;98944.84;;;29.79;23.17
16331;BME280;8275;48.206;16.340;2023-05-10T11:23:59;98948.38;;;30.20;22.78
16331;BME280;8275;48.206;16.340;2023-05-10T11:26:32;98958.72;;;30.57;22.36
16331;BME280;8275;48.206;16.340;2023-05-10T11:29:01;98943.91;;;30.88;22.00
16331;BME280;8275;48.206;16.340;2023-05-10T11:31:33;98954.06;;;31.06;21.75
16331;BME280;8275;48.206;16.340;2023-05-10T11:34:04;98932.25;;;31.14;21.27
16331;BME280;8275;48.206;16.340;2023-05-10T11:36:35;98944.41;;;31.25;21.15
16331;BME280;8275;48.206;16.340;2023-05-10T11:39:05;98945.28;;;31.50;20.90
16331;BME280;8275;48.206;16.340;2023-05-10T11:41:35;98957.03;;;31.80;20.88
16331;BME280;8275;48.206;16.340;2023-05-10T11:44:06;98940.41;;;31.89;20.80
16331;BME280;8275;48.206;16.340;2023-05-10T11:46:39;98946.91;;;32.08;20.31
16331;BME280;8275;48.206;16.340;2023-05-10T11:49:10;98952.97;;;32.27;20.15
16331;BME280;8275;48.206;16.340;2023-05-10T11:51:40;98940.34;;;32.53;20.18
16331;BME280;8275;48.206;16.340;2023-05-10T11:54:11;98946.38;;;32.69;19.64
16331;BME280;8275;48.206;16.340;2023-05-10T11:56:40;98943.53;;;32.69;19.58
16331;BME280;8275;48.206;16.340;2023-05-10T11:59:08;98941.91;;;32.72;18.86
16331;BME280;8275;48.206;16.340;2023-05-10T12:01:37;98947.97;;;32.74;18.73
16331;BME280;8275;48.206;16.340;2023-05-10T12:04:06;98941.44;;;32.87;18.82
16331;BME280;8275;48.206;16.340;2023-05-10T12:06:40;98935.56;;;33.26;18.61
16331;BME280;8275;48.206;16.340;2023-05-10T12:09:09;98934.78;;;33.77;18.61
16331;BME280;8275;48.206;16.340;2023-05-10T12:11:39;98941.69;;;34.20;17.69
16331;BME280;8275;48.206;16.340;2023-05-10T12:14:10;98938.13;;;34.53;17.45
16331;BME280;8275;48.206;16.340;2023-05-10T12:16:39;98940.44;;;34.62;16.95
16331;BME280;8275;48.206;16.340;2023-05-10T12:19:08;98937.22;;;34.60;16.62
16331;BME280;8275;48.206;16.340;2023-05-10T12:21:38;98945.63;;;34.71;17.03
16331;BME280;8275;48.206;16.340;2023-05-10T12:24:08;98935.63;;;34.89;16.62
16331;BME280;8275;48.206;16.340;2023-05-10T12:26:37;98933.22;;;34.88;16.96
16331;BME280;8275;48.206;16.340;2023-05-10T12:29:23;98933.88;;;34.99;16.50
16331;BME280;8275;48.206;16.340;2023-05-10T12:31:56;98929.50;;;35.21;16.74
16331;BME280;8275;48.206;16.340;2023-05-10T12:34:26;98926.44;;;35.35;16.13
16331;BME280;8275;48.206;16.340;2023-05-10T12:36:56;98940.78;;;35.58;16.10
16331;BME280;8275;48.206;16.340;2023-05-10T12:39:25;98931.75;;;35.86;15.87
16331;BME280;8275;48.206;16.340;2023-05-10T12:41:53;98929.72;;;36.10;15.34
16331;BME280;8275;48.206;16.340;2023-05-10T12:44:22;98916.94;;;36.38;15.26
16331;BME280;8275;48.206;16.340;2023-05-10T12:46:50;98928.84;;;36.76;15.31
16331;BME280;8275;48.206;16.340;2023-05-10T12:49:18;98933.81;;;37.11;14.73
16331;BME280;8275;48.206;16.340;2023-05-10T12:51:47;98919.88;;;37.49;14.17
16331;BME280;8275;48.206;16.340;2023-05-10T12:54:17;98920.19;;;37.86;14.27
16331;BME280;8275;48.206;16.340;2023-05-10T12:56:45;98921.16;;;38.12;13.80
16331;BME280;8275;48.206;16.340;2023-05-10T12:59:13;98910.75;;;38.18;13.83
16331;BME280;8275;48.206;16.340;2023-05-10T13:01:42;98911.09;;;38.20;13.33
16331;BME280;8275;48.206;16.340;2023-05-10T13:04:10;98915.38;;;38.44;13.47
16331;BME280;8275;48.206;16.340;2023-05-10T13:06:39;98904.25;;;38.75;13.64
16331;BME280;8275;48.206;16.340;2023-05-10T13:09:07;98910.41;;;38.61;13.36
16331;BME280;8275;48.206;16.340;2023-05-10T13:11:37;98917.91;;;38.26;13.33
16331;BME280;8275;48.206;16.340;2023-05-10T13:14:05;98908.47;;;37.97;13.03
16331;BME280;8275;48.206;16.340;2023-05-10T13:16:34;98920.88;;;37.42;13.24
16331;BME280;8275;48.206;16.340;2023-05-10T13:19:02;98925.34;;;36.68;14.04
16331;BME280;8275;48.206;16.340;2023-05-10T13:21:31;98918.75;;;36.09;13.92